createdAt,value
2022-08-09T00:01:52.671Z,10.63
2022-08-09T00:04:34.387Z,10.54
2022-08-09T00:07:07.691Z,10.50
2022-08-09T00:09:37.761Z,10.44
2022-08-09T00:12:05.382Z,10.40
2022-08-09T00:14:38.326Z,10.39
2022-08-09T00:17:05.876Z,10.34
2022-08-09T00:19:34.042Z,10.38
2022-08-09T00:22:03.658Z,10.34
2022-08-09T00:24:32.242Z,10.31
2022-08-09T00:27:00.976Z,10.28
2022-08-09T00:29:39.287Z,10.25
2022-08-09T00:32:27.016Z,10.20
2022-08-09T00:35:03.961Z,10.18
2022-08-09T00:37:32.469Z,10.14
2022-08-09T00:40:08.965Z,10.10
2022-08-09T00:44:11.856Z,10.03
2022-08-09T00:45:27.363Z,9.95
2022-08-09T00:47:55.451Z,9.91
2022-08-09T00:50:23.201Z,9.91
2022-08-09T00:52:50.449Z,9.92
2022-08-09T00:56:03.000Z,9.92
2022-08-09T00:58:05.967Z,9.97
2022-08-09T01:00:39.746Z,9.99
2022-08-09T01:03:10.181Z,10.12
2022-08-09T01:06:03.761Z,10.13
2022-08-09T01:09:15.092Z,10.11
2022-08-09T01:12:23.833Z,10.13
2022-08-09T01:15:05.888Z,10.15
2022-08-09T01:17:57.606Z,10.13
2022-08-09T01:20:47.213Z,10.11
2022-08-09T01:24:01.780Z,10.21
2022-08-09T01:26:54.892Z,10.21
2022-08-09T01:29:41.332Z,10.32
2022-08-09T01:32:30.681Z,10.29
2022-08-09T01:35:18.279Z,10.25
2022-08-09T01:38:09.404Z,10.22
2022-08-09T01:40:41.458Z,10.15
2022-08-09T01:43:09.890Z,10.18
2022-08-09T01:45:44.799Z,10.18
2022-08-09T01:48:17.805Z,10.18
2022-08-09T01:50:55.293Z,10.21
2022-08-09T01:53:28.802Z,10.27
2022-08-09T01:55:57.491Z,10.32
2022-08-09T01:58:28.047Z,10.31
2022-08-09T02:00:57.517Z,10.30
2022-08-09T02:03:25.851Z,10.35
2022-08-09T02:06:03.548Z,10.38
2022-08-09T02:08:57.971Z,10.46
2022-08-09T02:11:42.507Z,10.52
2022-08-09T02:14:15.058Z,10.60
2022-08-09T02:17:15.253Z,10.68
2022-08-09T02:19:43.342Z,10.72
2022-08-09T02:22:19.106Z,10.77
2022-08-09T02:24:59.178Z,10.82
2022-08-09T02:27:57.425Z,10.85
2022-08-09T02:30:17.325Z,10.88
2022-08-09T02:32:48.007Z,10.94
2022-08-09T02:36:02.765Z,11.01
2022-08-09T02:38:22.156Z,11.07
2022-08-09T02:41:02.706Z,11.14
2022-08-09T02:43:42.384Z,11.20
2022-08-09T02:46:22.815Z,11.32
2022-08-09T02:48:53.978Z,11.35
2022-08-09T02:51:23.169Z,11.40
2022-08-09T02:54:00.871Z,11.44
2022-08-09T02:56:31.899Z,11.47
2022-08-09T02:59:02.417Z,11.50
2022-08-09T03:01:42.605Z,11.51
2022-08-09T03:04:20.711Z,11.57
2022-08-09T03:06:54.538Z,11.59
2022-08-09T03:09:22.151Z,11.59
2022-08-09T03:12:08.507Z,11.60
2022-08-09T03:14:37.339Z,11.61
2022-08-09T03:17:05.674Z,11.62
2022-08-09T03:19:52.660Z,11.64
2022-08-09T03:22:30.221Z,11.67
2022-08-09T03:25:06.579Z,11.71
2022-08-09T03:27:50.954Z,11.74
2022-08-09T03:30:29.847Z,11.76
2022-08-09T03:33:17.502Z,11.76
2022-08-09T03:36:13.447Z,11.80
2022-08-09T03:38:42.176Z,11.80
2022-08-09T03:41:15.236Z,11.80
2022-08-09T03:43:43.072Z,11.74
2022-08-09T03:46:30.310Z,11.75
2022-08-09T03:49:04.285Z,11.69
2022-08-09T03:51:57.486Z,11.65
2022-08-09T03:54:29.158Z,11.59
2022-08-09T03:56:58.359Z,11.56
2022-08-09T03:59:42.696Z,11.57
2022-08-09T04:02:14.357Z,11.55
2022-08-09T04:04:45.626Z,11.53
2022-08-09T04:07:14.374Z,11.53
2022-08-09T04:09:50.042Z,11.53
2022-08-09T04:12:30.048Z,11.53
2022-08-09T04:15:01.555Z,11.52
2022-08-09T04:17:29.990Z,11.52
2022-08-09T04:20:02.552Z,11.52
2022-08-09T04:22:30.090Z,11.55
2022-08-09T04:24:58.877Z,11.55
2022-08-09T04:27:26.009Z,11.59
2022-08-09T04:29:56.078Z,11.60
2022-08-09T04:32:31.446Z,11.61
2022-08-09T04:35:01.201Z,11.64
2022-08-09T04:37:42.043Z,11.64
2022-08-09T04:40:19.200Z,11.64
2022-08-09T04:42:48.511Z,11.65
2022-08-09T04:45:20.534Z,11.66
2022-08-09T04:48:00.165Z,11.62
2022-08-09T04:50:31.702Z,11.65
2022-08-09T04:53:00.899Z,11.61
2022-08-09T04:55:27.891Z,11.62
2022-08-09T04:58:09.674Z,11.60
2022-08-09T05:00:37.311Z,11.58
2022-08-09T05:03:30.458Z,11.57
2022-08-09T05:06:06.508Z,11.53
2022-08-09T05:08:37.562Z,11.52
2022-08-09T05:11:06.850Z,11.49
2022-08-09T05:13:38.926Z,11.50
2022-08-09T05:16:08.228Z,11.51
2022-08-09T05:18:58.110Z,11.51
2022-08-09T05:21:30.087Z,11.50
2022-08-09T05:24:04.839Z,11.50
2022-08-09T05:26:45.375Z,11.52
2022-08-09T05:29:21.148Z,11.55
2022-08-09T05:31:58.875Z,11.58
2022-08-09T05:34:32.842Z,11.60
2022-08-09T05:37:05.929Z,11.64
2022-08-09T05:39:43.927Z,11.66
2022-08-09T05:42:17.566Z,11.73
2022-08-09T05:44:50.653Z,11.75
2022-08-09T05:47:19.100Z,11.78
2022-08-09T05:50:30.447Z,11.81
2022-08-09T05:52:33.144Z,11.83
2022-08-09T05:55:03.168Z,11.89
2022-08-09T05:57:55.208Z,11.92
2022-08-09T06:00:22.499Z,11.96
2022-08-09T06:02:49.423Z,11.98
2022-08-09T06:05:30.902Z,12.03
2022-08-09T06:08:09.215Z,12.05
2022-08-09T06:10:38.396Z,12.06
2022-08-09T06:13:12.273Z,12.11
2022-08-09T06:15:47.755Z,12.19
2022-08-09T06:18:23.744Z,12.23
2022-08-09T06:20:54.631Z,12.21
2022-08-09T06:23:57.874Z,12.28
2022-08-09T06:26:14.421Z,12.39
2022-08-09T06:28:43.311Z,12.45
2022-08-09T06:31:11.168Z,12.51
2022-08-09T06:33:40.455Z,12.55
2022-08-09T06:36:11.869Z,12.58
2022-08-09T06:38:47.202Z,12.63
2022-08-09T06:41:18.811Z,12.65
2022-08-09T06:43:47.146Z,12.75
2022-08-09T06:46:40.402Z,12.84
2022-08-09T06:49:02.316Z,12.91
2022-08-09T06:51:29.255Z,12.96
2022-08-09T06:54:00.994Z,13.01
2022-08-09T06:56:30.841Z,13.01
2022-08-09T07:00:52.583Z,13.03
2022-08-09T07:01:58.146Z,13.16
2022-08-09T07:04:30.837Z,13.36
2022-08-09T07:07:00.432Z,13.49
2022-08-09T07:09:56.468Z,13.60
2022-08-09T07:12:18.031Z,13.76
2022-08-09T07:14:51.355Z,13.96
2022-08-09T07:17:19.969Z,14.09
2022-08-09T07:19:48.243Z,14.25
2022-08-09T07:22:27.375Z,14.43
2022-08-09T07:25:05.053Z,14.60
2022-08-09T07:27:34.515Z,14.76
2022-08-09T07:30:13.588Z,14.94
2022-08-09T07:32:41.878Z,15.15
2022-08-09T07:35:12.293Z,15.22
2022-08-09T07:37:45.545Z,15.35
2022-08-09T07:40:17.054Z,15.55
2022-08-09T07:42:50.143Z,15.70
2022-08-09T07:45:23.019Z,15.70
2022-08-09T07:48:05.120Z,15.73
2022-08-09T07:50:34.578Z,15.84
2022-08-09T07:53:03.048Z,16.00
2022-08-09T07:55:41.391Z,16.13
2022-08-09T07:58:21.666Z,16.22
2022-08-09T08:00:58.915Z,16.38
2022-08-09T08:03:36.917Z,16.45
2022-08-09T08:06:04.898Z,16.52
2022-08-09T08:09:01.360Z,16.48
2022-08-09T08:12:11.235Z,16.54
2022-08-09T08:14:06.833Z,16.68
2022-08-09T08:16:35.779Z,16.63
2022-08-09T08:19:06.515Z,16.50
2022-08-09T08:21:34.061Z,16.49
2022-08-09T08:24:11.749Z,16.57
2022-08-09T08:26:54.914Z,16.74
2022-08-09T08:29:27.759Z,17.09
2022-08-09T08:32:03.234Z,17.53
2022-08-09T08:34:34.440Z,18.02
2022-08-09T08:37:02.640Z,18.33
2022-08-09T08:39:32.908Z,18.46
2022-08-09T08:42:08.550Z,18.50
2022-08-09T08:44:37.251Z,18.70
2022-08-09T08:47:13.189Z,19.04
2022-08-09T08:49:47.703Z,19.19
2022-08-09T08:52:58.071Z,19.21
2022-08-09T08:55:08.032Z,19.29
2022-08-09T08:57:35.928Z,19.49
2022-08-09T09:00:12.903Z,19.57
2022-08-09T09:02:53.388Z,19.72
2022-08-09T09:05:57.345Z,19.84
2022-08-09T09:08:30.893Z,19.90
2022-08-09T09:11:03.242Z,19.88
2022-08-09T09:13:42.214Z,20.00
2022-08-09T09:16:29.936Z,20.06
2022-08-09T09:21:59.562Z,20.28
2022-08-09T09:24:29.430Z,21.03
2022-08-09T09:26:58.418Z,21.65
2022-08-09T09:29:46.050Z,22.27
2022-08-09T09:32:32.397Z,22.68
2022-08-09T09:35:10.909Z,22.96
2022-08-09T09:37:45.757Z,23.46
2022-08-09T09:40:13.139Z,23.83
2022-08-09T09:42:46.000Z,24.19
2022-08-09T09:45:14.402Z,24.62
2022-08-09T09:47:56.574Z,25.07
2022-08-09T09:50:49.584Z,25.36
2022-08-09T09:53:44.187Z,25.45
2022-08-09T09:56:20.076Z,25.68
2022-08-09T09:58:58.331Z,26.05
2022-08-09T10:01:36.897Z,26.10
2022-08-09T10:04:30.352Z,26.00
2022-08-09T10:06:58.105Z,25.71
2022-08-09T10:09:25.722Z,25.81
2022-08-09T10:12:11.780Z,26.01
2022-08-09T10:14:47.815Z,26.23
2022-08-09T10:17:39.488Z,26.32
2022-08-09T10:20:32.566Z,26.22
2022-08-09T10:23:21.997Z,25.92
2022-08-09T10:26:06.459Z,25.80
2022-08-09T10:28:37.322Z,25.87
2022-08-09T10:34:09.005Z,25.99
2022-08-09T10:36:42.201Z,26.10
2022-08-09T10:39:15.413Z,26.23
2022-08-09T10:41:48.066Z,26.61
2022-08-09T10:44:25.621Z,25.85
2022-08-09T10:47:28.145Z,26.31
2022-08-09T10:50:06.074Z,26.37
2022-08-09T10:52:36.362Z,26.69
2022-08-09T10:55:25.285Z,26.31
2022-08-09T10:57:55.992Z,26.70
2022-08-09T11:00:41.584Z,26.79
2022-08-09T11:03:49.932Z,26.67
2022-08-09T11:06:19.940Z,26.83
2022-08-09T11:08:53.080Z,27.12
2022-08-09T11:11:21.476Z,27.25
2022-08-09T11:14:27.964Z,27.09
2022-08-09T11:16:56.338Z,27.49
2022-08-09T11:20:07.999Z,27.62
2022-08-09T11:22:44.964Z,27.99
2022-08-09T11:25:26.149Z,28.07
2022-08-09T11:28:38.751Z,27.95
2022-08-09T11:31:43.533Z,28.34
2022-08-09T11:34:35.208Z,28.39
2022-08-09T11:37:07.225Z,28.59
2022-08-09T11:40:01.598Z,28.74
2022-08-09T11:42:48.360Z,28.86
2022-08-09T11:45:43.229Z,28.87
2022-08-09T11:48:19.343Z,29.10
2022-08-09T11:52:48.669Z,29.20
2022-08-09T11:53:58.693Z,29.25
2022-08-09T11:56:42.760Z,29.60
2022-08-09T11:59:30.201Z,29.69
2022-08-09T12:02:18.187Z,29.68
2022-08-09T12:04:58.781Z,29.74
2022-08-09T12:07:41.675Z,29.67
2022-08-09T12:10:31.887Z,29.82
2022-08-09T12:12:57.956Z,29.98
2022-08-09T12:15:48.819Z,30.11
2022-08-09T12:18:30.098Z,30.10
2022-08-09T12:21:02.799Z,30.02
2022-08-09T12:23:58.678Z,30.03
2022-08-09T12:26:19.859Z,30.00
2022-08-09T12:29:11.901Z,30.07
2022-08-09T12:31:58.224Z,30.03
2022-08-09T12:34:40.014Z,29.58
2022-08-09T12:37:21.962Z,29.82
2022-08-09T12:40:11.725Z,29.68
2022-08-09T12:42:50.593Z,29.69
2022-08-09T12:45:34.005Z,29.21
2022-08-09T12:48:20.061Z,28.92
2022-08-09T12:50:58.493Z,29.08
2022-08-09T12:53:37.592Z,28.71
2022-08-09T12:56:42.866Z,28.82
2022-08-09T12:59:20.612Z,29.18
2022-08-09T13:02:00.013Z,29.42
2022-08-09T13:04:36.147Z,29.27
2022-08-09T13:07:13.808Z,28.51
2022-08-09T13:09:52.843Z,28.50
2022-08-09T13:12:28.359Z,28.72
2022-08-09T13:15:08.165Z,29.12
2022-08-09T13:18:03.480Z,28.89
2022-08-09T13:20:37.740Z,29.27
2022-08-09T13:24:15.585Z,29.18
2022-08-09T13:26:05.687Z,29.13
2022-08-09T13:28:39.543Z,29.15
2022-08-09T13:32:14.185Z,28.95
2022-08-09T13:33:59.055Z,28.37
2022-08-09T13:36:41.540Z,28.39
2022-08-09T13:41:20.919Z,28.07
2022-08-09T13:42:15.667Z,27.97
2022-08-09T13:44:43.905Z,27.77
2022-08-09T13:47:29.013Z,27.72
2022-08-09T13:50:12.780Z,27.52
2022-08-09T13:52:55.937Z,27.44
2022-08-09T13:55:23.245Z,27.14
2022-08-09T13:57:56.224Z,27.24
2022-08-09T14:00:28.997Z,27.37
2022-08-09T14:03:03.485Z,27.07
2022-08-09T14:05:59.816Z,27.09
2022-08-09T14:08:30.495Z,27.45
2022-08-09T14:10:59.419Z,27.63
2022-08-09T14:14:15.587Z,27.43
2022-08-09T14:16:18.266Z,27.00
2022-08-09T14:18:49.582Z,26.68
2022-08-09T14:21:22.368Z,26.50
2022-08-09T14:23:53.925Z,26.87
2022-08-09T14:26:21.561Z,27.31
2022-08-09T14:28:48.510Z,27.57
2022-08-09T14:31:15.405Z,27.77
2022-08-09T14:33:42.496Z,27.89
2022-08-09T14:36:20.905Z,28.03
2022-08-09T14:38:52.552Z,27.90
2022-08-09T14:41:34.771Z,27.34
2022-08-09T14:44:07.150Z,26.93
2022-08-09T14:46:54.312Z,27.24
2022-08-09T14:49:25.209Z,27.49
2022-08-09T14:51:53.281Z,27.87
2022-08-09T14:54:28.363Z,28.12
2022-08-09T14:56:58.752Z,28.33
2022-08-09T14:59:27.448Z,28.06
2022-08-09T15:01:56.212Z,28.30
2022-08-09T15:04:23.954Z,27.95
2022-08-09T15:06:52.413Z,27.63
2022-08-09T15:10:04.004Z,27.69
2022-08-09T15:12:07.803Z,27.52
2022-08-09T15:14:38.662Z,27.61
2022-08-09T15:17:09.900Z,27.92
2022-08-09T15:19:54.433Z,27.14
2022-08-09T15:22:26.863Z,26.71
2022-08-09T15:24:54.530Z,26.82
2022-08-09T15:27:21.948Z,26.97
2022-08-09T15:30:58.279Z,27.07
2022-08-09T15:32:36.099Z,26.74
2022-08-09T15:35:18.060Z,26.40
2022-08-09T15:37:56.758Z,26.32
2022-08-09T15:40:34.305Z,26.31
2022-08-09T15:43:01.855Z,26.22
2022-08-09T15:45:30.078Z,25.98
2022-08-09T15:48:05.283Z,25.74
2022-08-09T15:50:43.746Z,25.50
2022-08-09T15:54:02.037Z,25.48
2022-08-09T15:56:21.520Z,25.67
2022-08-09T15:58:46.459Z,25.88
2022-08-09T16:01:13.622Z,26.35
2022-08-09T16:03:41.662Z,26.69
2022-08-09T16:06:16.077Z,26.88
2022-08-09T16:09:00.908Z,27.12
2022-08-09T16:11:30.770Z,27.13
2022-08-09T16:14:02.810Z,26.93
2022-08-09T16:16:34.547Z,27.26
2022-08-09T16:19:04.872Z,27.36
2022-08-09T16:21:35.033Z,27.04
2022-08-09T16:24:04.852Z,26.98
2022-08-09T16:26:34.965Z,27.19
2022-08-09T16:29:10.545Z,27.33
2022-08-09T16:32:19.218Z,27.42
2022-08-09T16:34:25.059Z,27.39
2022-08-09T16:36:52.301Z,26.89
2022-08-09T16:39:19.733Z,26.77
2022-08-09T16:42:04.124Z,26.78
2022-08-09T16:44:32.373Z,26.97
2022-08-09T16:47:03.784Z,27.11
2022-08-09T16:50:32.196Z,27.11
2022-08-09T16:52:19.175Z,27.21
2022-08-09T16:54:46.271Z,27.12
2022-08-09T16:57:16.404Z,27.05
2022-08-09T16:59:43.825Z,26.96
2022-08-09T17:02:17.800Z,26.58
2022-08-09T17:04:50.501Z,26.23
2022-08-09T17:08:44.476Z,26.24
2022-08-09T17:10:09.219Z,26.19
2022-08-09T17:12:38.103Z,26.11
2022-08-09T17:15:17.977Z,26.01
2022-08-09T17:17:52.578Z,25.92
2022-08-09T17:20:32.855Z,25.89
2022-08-09T17:23:04.840Z,25.68
2022-08-09T17:25:32.359Z,25.50
2022-08-09T17:28:05.756Z,25.31
2022-08-09T17:30:34.252Z,25.23
2022-08-09T17:33:22.801Z,25.17
2022-08-09T17:35:50.204Z,25.00
2022-08-09T17:38:30.519Z,24.86
2022-08-09T17:41:00.784Z,24.78
2022-08-09T17:43:34.588Z,24.69
2022-08-09T17:46:08.704Z,24.59
2022-08-09T17:48:51.799Z,24.42
2022-08-09T17:51:20.246Z,24.27
2022-08-09T17:53:54.637Z,24.09
2022-08-09T17:56:29.299Z,23.94
2022-08-09T17:59:09.371Z,23.72
2022-08-09T18:02:07.668Z,23.57
2022-08-09T18:04:28.637Z,23.41
2022-08-09T18:06:56.250Z,23.25
2022-08-09T18:09:40.135Z,23.12
2022-08-09T18:12:20.006Z,23.00
2022-08-09T18:14:54.889Z,22.86
2022-08-09T18:18:02.806Z,22.77
2022-08-09T18:20:55.134Z,22.62
2022-08-09T18:23:05.534Z,22.48
2022-08-09T18:25:50.604Z,22.44
2022-08-09T18:30:41.930Z,22.30
2022-08-09T18:31:08.695Z,22.24
2022-08-09T18:33:36.269Z,22.12
2022-08-09T18:36:03.253Z,22.01
2022-08-09T18:38:30.715Z,21.90
2022-08-09T18:40:58.637Z,21.78
2022-08-09T18:43:25.472Z,21.69
2022-08-09T18:46:49.262Z,21.64
2022-08-09T18:48:42.478Z,21.60
2022-08-09T18:51:09.808Z,21.52
2022-08-09T18:53:56.385Z,21.48
2022-08-09T18:56:28.221Z,21.43
2022-08-09T18:58:57.220Z,21.32
2022-08-09T19:01:24.825Z,21.24
2022-08-09T19:04:01.343Z,21.15
2022-08-09T19:06:38.747Z,20.95
2022-08-09T19:09:07.490Z,20.83
2022-08-09T19:11:37.706Z,20.65
2022-08-09T19:14:06.885Z,20.49
2022-08-09T19:16:36.071Z,20.38
2022-08-09T19:19:23.482Z,20.17
2022-08-09T19:21:56.653Z,20.09
2022-08-09T19:25:07.271Z,20.02
2022-08-09T19:27:18.259Z,19.91
2022-08-09T19:30:24.715Z,19.79
2022-08-09T19:32:33.095Z,19.63
2022-08-09T19:35:00.949Z,19.46
2022-08-09T19:37:29.382Z,19.28
2022-08-09T19:40:09.383Z,19.10
2022-08-09T19:42:36.552Z,18.95
2022-08-09T19:45:06.595Z,18.83
2022-08-09T19:47:38.148Z,18.69
2022-08-09T19:50:48.445Z,18.55
2022-08-09T19:52:52.736Z,18.38
2022-08-09T19:55:25.658Z,18.23
2022-08-09T19:57:57.933Z,18.05
2022-08-09T20:00:25.034Z,17.90
2022-08-09T20:04:09.573Z,17.75
2022-08-09T20:05:46.299Z,17.53
2022-08-09T20:08:16.224Z,17.39
2022-08-09T20:11:02.529Z,17.16
2022-08-09T20:13:36.781Z,17.02
2022-08-09T20:16:35.048Z,16.79
2022-08-09T20:19:43.131Z,16.65
2022-08-09T20:21:56.332Z,16.49
2022-08-09T20:24:29.598Z,16.35
2022-08-09T20:27:01.263Z,16.21
2022-08-09T20:29:32.607Z,16.09
2022-08-09T20:32:30.351Z,15.99
2022-08-09T20:34:54.657Z,15.86
2022-08-09T20:37:22.589Z,15.71
2022-08-09T20:40:15.999Z,15.53
2022-08-09T20:42:37.938Z,15.38
2022-08-09T20:46:01.406Z,15.28
2022-08-09T20:47:55.067Z,15.18
2022-08-09T20:50:47.420Z,15.10
2022-08-09T20:53:21.100Z,14.95
2022-08-09T20:56:02.057Z,14.82
2022-08-09T20:58:32.779Z,14.68
2022-08-09T21:01:32.226Z,14.57
2022-08-09T21:05:49.101Z,14.45
2022-08-09T21:06:42.658Z,14.32
2022-08-09T21:09:13.614Z,14.21
2022-08-09T21:14:31.118Z,14.02
2022-08-09T21:16:59.405Z,13.91
2022-08-09T21:20:19.264Z,13.83
2022-08-09T21:22:36.099Z,13.74
2022-08-09T21:25:20.898Z,13.64
2022-08-09T21:27:52.354Z,13.54
2022-08-09T21:30:22.290Z,13.46
2022-08-09T21:32:50.697Z,13.35
2022-08-09T21:35:18.507Z,13.30
2022-08-09T21:37:59.131Z,13.22
2022-08-09T21:40:30.302Z,13.13
2022-08-09T21:42:59.682Z,13.06
2022-08-09T21:45:28.144Z,12.99
2022-08-09T21:47:55.634Z,12.93
2022-08-09T21:50:33.908Z,12.82
2022-08-09T21:53:19.993Z,12.79
2022-08-09T21:55:54.239Z,12.70
2022-08-09T21:58:21.239Z,12.70
2022-08-09T22:00:58.617Z,12.78
2022-08-09T22:03:26.271Z,12.82
2022-08-09T22:05:54.978Z,12.77
2022-08-09T22:08:25.765Z,12.68
2022-08-09T22:11:00.196Z,12.56
2022-08-09T22:13:42.341Z,12.50
2022-08-09T22:16:12.163Z,12.41
2022-08-09T22:18:53.101Z,12.31
2022-08-09T22:21:21.865Z,12.21
2022-08-09T22:23:59.308Z,12.16
2022-08-09T22:26:35.249Z,12.10
2022-08-09T22:29:09.499Z,12.05
2022-08-09T22:31:44.189Z,11.96
2022-08-09T22:34:14.462Z,11.92
2022-08-09T22:36:46.156Z,11.88
2022-08-09T22:39:46.957Z,11.84
2022-08-09T22:42:03.894Z,11.81
2022-08-09T22:44:33.937Z,11.75
2022-08-09T22:48:13.131Z,11.65
2022-08-09T22:49:52.079Z,11.57
2022-08-09T22:52:19.650Z,11.50
2022-08-09T22:54:47.937Z,11.46
2022-08-09T22:57:14.979Z,11.48
2022-08-09T22:59:56.071Z,11.48
2022-08-09T23:02:25.813Z,11.41
2022-08-09T23:04:56.929Z,11.33
2022-08-09T23:08:22.408Z,11.23
2022-08-09T23:10:32.070Z,11.16
2022-08-09T23:12:59.927Z,11.15
2022-08-09T23:15:28.219Z,11.17
2022-08-09T23:17:56.028Z,11.14
2022-08-09T23:20:25.325Z,11.04
2022-08-09T23:22:52.423Z,10.93
2022-08-09T23:25:19.367Z,10.93
2022-08-09T23:28:14.353Z,10.89
2022-08-09T23:30:33.123Z,10.85
2022-08-09T23:33:00.081Z,10.77
2022-08-09T23:35:27.024Z,10.72
2022-08-09T23:37:53.946Z,10.74
2022-08-09T23:40:20.924Z,10.74
2022-08-09T23:42:47.847Z,10.75
2022-08-09T23:45:36.513Z,10.78
2022-08-09T23:48:05.414Z,10.79
2022-08-09T23:50:35.726Z,10.77
2022-08-09T23:53:02.625Z,10.77
2022-08-09T23:55:30.536Z,10.77
2022-08-09T23:58:10.581Z,10.80
